Time;durP1;ratioP1;P1;durP2;ratioP2;P2;SDS_P1;SDS_P2;PMS_P1;PMS_P2;Temp;Humidity;BMP_temperature;BMP_pressure;BME280_temperature;BME280_humidity;BME280_pressure;Samples;Min_cycle;Max_cycle;Signal;HPM_P1;HPM_P2
2023/04/03 00:00:17;;;;;;;5.28;2.20;;;;;;;2.14;84.39;97995.25;5029422;28;20496;-58
2023/04/03 00:02:43;;;;;;;5.00;2.20;;;;;;;2.14;84.17;97996.06;5016766;28;20123;-59
2023/04/03 00:05:10;;;;;;;4.00;2.13;;;;;;;2.17;84.18;97990.34;5024453;28;20060;-59
2023/04/03 00:07:37;;;;;;;3.40;2.10;;;;;;;2.20;84.81;97986.47;5031586;28;20045;-58
2023/04/03 00:10:04;;;;;;;4.15;2.25;;;;;;;2.26;84.26;97984.94;5022914;28;20036;-57
2023/04/03 00:12:30;;;;;;;4.57;2.05;;;;;;;2.23;83.80;97983.44;5027855;28;20045;-59
2023/04/03 00:14:57;;;;;;;4.13;2.28;;;;;;;2.27;84.53;97986.56;5032996;28;20056;-57
2023/04/03 00:17:23;;;;;;;4.15;2.22;;;;;;;2.15;84.11;97989.72;5028953;28;20512;-59
2023/04/03 00:19:50;;;;;;;5.35;2.70;;;;;;;2.07;84.79;97992.47;5024982;28;20057;-59
2023/04/03 00:22:16;;;;;;;5.50;2.15;;;;;;;2.06;84.66;97988.13;5029044;28;20042;-59
2023/04/03 00:24:43;;;;;;;5.35;1.90;;;;;;;2.19;84.93;97984.84;5028062;28;20054;-59
2023/04/03 00:27:11;;;;;;;3.88;2.00;;;;;;;2.23;84.32;97983.44;5026981;28;20045;-59
2023/04/03 00:29:37;;;;;;;4.82;1.95;;;;;;;2.19;84.70;97985.69;5019174;28;20580;-59
2023/04/03 00:32:04;;;;;;;4.50;2.20;;;;;;;2.14;84.42;97988.03;5026591;28;20123;-59
2023/04/03 00:34:31;;;;;;;3.88;2.20;;;;;;;2.06;85.28;97985.44;5028512;28;20106;-56
2023/04/03 00:36:57;;;;;;;4.70;2.45;;;;;;;2.04;85.02;97990.16;5031691;28;20047;-58
2023/04/03 00:39:24;;;;;;;5.35;2.35;;;;;;;2.02;85.58;97986.81;5035851;28;20051;-58
2023/04/03 00:41:51;;;;;;;4.13;2.15;;;;;;;2.03;85.90;97978.63;5024481;28;20072;-59
2023/04/03 00:44:38;;;;;;;3.58;1.85;;;;;;;2.06;85.73;97991.63;5021441;28;20044;-58
2023/04/03 00:47:08;;;;;;;7.43;2.50;;;;;;;1.99;85.73;97982.66;4991878;28;20140;-59
2023/04/03 00:49:36;;;;;;;3.53;2.10;;;;;;;1.92;85.63;97984.44;5025113;28;20099;-59
2023/04/03 00:52:06;;;;;;;4.00;2.30;;;;;;;1.91;86.61;97988.09;5020714;28;20512;-59
2023/04/03 00:54:36;;;;;;;3.97;2.00;;;;;;;2.00;86.30;97983.50;5026700;28;20045;-59
2023/04/03 00:57:04;;;;;;;4.28;2.10;;;;;;;1.92;86.27;97979.91;5025598;28;20072;-59
2023/04/03 00:59:35;;;;;;;5.75;2.17;;;;;;;1.92;86.50;97979.09;5031046;28;20099;-58
2023/04/03 01:02:01;;;;;;;4.30;2.55;;;;;;;1.93;86.43;97981.59;5021410;28;20115;-57
2023/04/03 01:04:39;;;;;;;3.97;2.20;;;;;;;1.97;85.67;97982.03;5030532;28;20041;-59
2023/04/03 01:07:18;;;;;;;4.40;2.40;;;;;;;1.87;86.13;97981.44;5020637;28;20051;-57
2023/04/03 01:09:46;;;;;;;4.38;2.00;;;;;;;1.95;86.49;97976.03;5021116;28;20681;-58
2023/04/03 01:12:16;;;;;;;5.22;2.30;;;;;;;1.92;85.70;97979.09;5024968;28;20075;-59
2023/04/03 01:14:48;;;;;;;3.53;2.20;;;;;;;1.87;85.99;97981.44;5020728;28;20111;-58
2023/04/03 01:17:30;;;;;;;6.28;2.10;;;;;;;1.81;85.55;97985.69;5012108;28;20415;-58
2023/04/03 01:20:35;;;;;;;3.97;2.10;;;;;;;1.85;86.67;97987.00;5026977;28;20049;-58
2023/04/03 01:23:08;;;;;;;5.68;2.17;;;;;;;1.86;86.97;97977.13;5019759;28;20068;-59
2023/04/03 01:25:38;;;;;;;3.20;2.08;;;;;;;1.60;88.91;97978.34;5023537;28;20037;-59
2023/04/03 01:28:07;;;;;;;4.40;2.35;;;;;;;1.26;91.30;97988.44;5021401;28;20444;-58
2023/04/03 01:30:41;;;;;;;4.60;2.30;;;;;;;0.95;94.02;97984.75;5025415;28;20038;-59
2023/04/03 01:33:07;;;;;;;4.90;2.50;;;;;;;0.73;96.24;97981.88;5021005;28;20137;-57
2023/04/03 01:35:34;;;;;;;4.90;2.45;;;;;;;0.69;96.62;97988.56;5024955;28;20034;-58
2023/04/03 01:38:00;;;;;;;4.70;2.00;;;;;;;0.51;96.95;97994.94;5022904;28;21196;-59
2023/04/03 01:40:27;;;;;;;5.47;2.40;;;;;;;0.55;96.96;97991.94;5029100;28;20045;-58
2023/04/03 01:42:53;;;;;;;5.60;2.15;;;;;;;0.70;99.70;97994.72;5022578;28;20041;-56
2023/04/03 01:45:20;;;;;;;3.90;2.15;;;;;;;0.58;99.48;97995.09;5017630;28;20124;-59
2023/04/03 01:47:47;;;;;;;6.47;2.15;;;;;;;0.43;100.00;97989.66;5025572;28;20107;-58
2023/04/03 01:50:13;;;;;;;3.70;1.92;;;;;;;0.44;100.00;97990.50;5024679;28;20041;-59
2023/04/03 01:52:40;;;;;;;4.40;2.13;;;;;;;0.44;100.00;97998.47;5016311;28;20051;-59
2023/04/03 01:55:07;;;;;;;4.72;2.28;;;;;;;0.47;100.00;97995.44;5025679;28;20069;-58
2023/04/03 01:57:34;;;;;;;4.55;2.40;;;;;;;0.41;100.00;97993.50;5025262;28;20731;-58
2023/04/03 02:00:00;;;;;;;4.85;2.75;;;;;;;0.41;100.00;97989.00;5019108;28;20049;-58
2023/04/03 02:02:27;;;;;;;3.90;2.30;;;;;;;0.36;99.85;97989.50;5021819;28;20528;-59
2023/04/03 02:04:54;;;;;;;3.83;2.03;;;;;;;0.41;100.00;97994.34;5024514;28;20767;-58
2023/04/03 02:07:21;;;;;;;5.00;2.10;;;;;;;0.41;100.00;97983.66;5024086;28;20072;-58
2023/04/03 02:09:47;;;;;;;5.10;2.17;;;;;;;0.58;99.80;97997.75;5024177;28;20041;-58
2023/04/03 02:12:14;;;;;;;4.90;2.72;;;;;;;0.39;100.00;97996.31;5021708;28;20061;-59
2023/04/03 02:14:42;;;;;;;6.47;2.30;;;;;;;0.41;100.00;97998.81;5024487;28;20049;-59
2023/04/03 02:17:11;;;;;;;4.88;2.50;;;;;;;0.33;100.00;98000.50;5019577;28;20054;-59
2023/04/03 02:19:37;;;;;;;3.95;2.30;;;;;;;0.35;100.00;98003.84;5026336;28;20041;-56
2023/04/03 02:22:04;;;;;;;4.75;2.55;;;;;;;0.40;100.00;98002.50;5022298;28;20111;-58
2023/04/03 02:24:31;;;;;;;4.70;2.42;;;;;;;0.42;100.00;98001.31;5024694;28;20067;-60
2023/04/03 02:26:59;;;;;;;6.85;2.50;;;;;;;0.52;100.00;97998.47;5027382;28;20532;-59
2023/04/03 02:29:25;;;;;;;4.88;2.55;;;;;;;0.57;100.00;98001.44;5025179;28;20044;-60
2023/04/03 02:31:52;;;;;;;4.32;2.17;;;;;;;0.47;100.00;97998.97;5022682;28;20046;-59
2023/04/03 02:34:20;;;;;;;5.10;2.78;;;;;;;0.59;100.00;97998.59;5028020;28;20044;-59
2023/04/03 02:36:48;;;;;;;4.55;2.40;;;;;;;0.75;99.01;98003.03;5018684;28;20088;-59
2023/04/03 02:39:16;;;;;;;5.00;2.53;;;;;;;0.74;99.60;98004.03;5022676;28;20087;-58
2023/04/03 02:41:43;;;;;;;4.75;2.38;;;;;;;1.02;97.34;97992.88;5022702;28;20041;-58
2023/04/03 02:44:17;;;;;;;5.82;2.40;;;;;;;1.14;94.83;98002.16;5021033;28;20049;-58
2023/04/03 02:46:45;;;;;;;5.30;2.50;;;;;;;1.31;93.08;98002.06;5026131;28;20045;-58
2023/04/03 02:49:11;;;;;;;5.35;2.67;;;;;;;1.32;92.45;98002.91;5020242;28;20644;-57
2023/04/03 02:51:37;;;;;;;4.40;2.60;;;;;;;1.32;92.40;98000.25;5024741;28;20554;-60
2023/04/03 02:54:04;;;;;;;4.75;2.38;;;;;;;1.41;91.44;97991.16;5024640;28;20040;-58
2023/04/03 02:56:33;;;;;;;7.35;2.88;;;;;;;1.40;90.56;98006.34;5022210;28;20052;-58
2023/04/03 02:59:00;;;;;;;5.90;2.65;;;;;;;1.34;91.08;97999.06;5026737;28;20128;-58
2023/04/03 03:01:31;;;;;;;5.40;2.67;;;;;;;1.45;90.63;97991.63;5019289;28;20038;-59
2023/04/03 03:03:58;;;;;;;5.85;2.88;;;;;;;1.56;89.05;97991.22;5022915;28;20595;-59
2023/04/03 03:06:25;;;;;;;7.68;2.38;;;;;;;1.67;88.50;97985.44;5022840;28;20068;-58
2023/04/03 03:08:52;;;;;;;4.13;2.33;;;;;;;1.63;88.11;97986.00;5019298;28;20412;-58
2023/04/03 03:11:19;;;;;;;4.82;2.00;;;;;;;1.66;87.85;97981.13;5017475;28;20124;-60
2023/04/03 03:13:46;;;;;;;5.85;2.35;;;;;;;1.60;88.65;97978.34;5019378;28;20052;-58
2023/04/03 03:16:13;;;;;;;4.70;2.45;;;;;;;1.56;88.98;97978.69;5020605;28;20048;-58
2023/04/03 03:18:39;;;;;;;4.60;2.15;;;;;;;1.59;90.05;97972.19;5020631;28;20052;-59
2023/04/03 03:21:06;;;;;;;8.52;2.97;;;;;;;1.52;89.44;97977.38;5021017;28;20038;-59
2023/04/03 03:23:34;;;;;;;3.97;2.58;;;;;;;1.55;88.41;97971.69;5016891;28;20049;-59
2023/04/03 03:26:04;;;;;;;6.30;2.33;;;;;;;1.51;88.60;97974.91;5022243;28;20076;-57
2023/04/03 03:28:33;;;;;;;5.90;2.60;;;;;;;1.43;88.05;97975.78;5023165;28;20064;-58
2023/04/03 03:31:00;;;;;;;4.45;2.42;;;;;;;1.41;86.89;97978.63;5021157;28;20110;-58
2023/04/03 03:33:27;;;;;;;5.18;2.33;;;;;;;1.45;88.80;97972.94;5021690;28;20049;-59
2023/04/03 03:35:54;;;;;;;5.50;2.53;;;;;;;1.39;90.02;97970.00;5024992;28;20081;-58
2023/04/03 03:38:21;;;;;;;5.55;2.42;;;;;;;1.40;86.86;97968.97;5024773;28;20045;-59
2023/04/03 03:40:49;;;;;;;5.68;2.70;;;;;;;1.38;87.27;97979.00;5025336;28;20043;-57
2023/04/03 03:43:18;;;;;;;4.05;2.30;;;;;;;1.48;86.26;97977.94;5026502;28;20547;-58
2023/04/03 03:45:50;;;;;;;5.18;2.35;;;;;;;1.50;87.00;97974.09;5022330;28;20045;-58
2023/04/03 03:48:17;;;;;;;6.13;2.20;;;;;;;1.63;81.83;97973.50;5027368;28;20029;-58
2023/04/03 03:50:43;;;;;;;5.28;2.40;;;;;;;1.47;82.04;97970.94;5015624;28;20295;-58
2023/04/03 03:53:10;;;;;;;4.57;2.60;;;;;;;1.45;81.48;97973.78;5026101;28;20037;-59
2023/04/03 03:55:37;;;;;;;4.75;2.38;;;;;;;1.47;80.84;97976.28;5028653;28;20045;-59
2023/04/03 03:58:04;;;;;;;4.68;2.55;;;;;;;1.51;79.67;97980.25;5020042;28;20061;-60
2023/04/03 04:00:32;;;;;;;6.68;2.83;;;;;;;1.62;78.94;97971.81;5022989;28;20484;-58
2023/04/03 04:03:00;;;;;;;7.50;3.33;;;;;;;1.61;79.18;97972.00;5026433;28;20037;-59
2023/04/03 04:05:29;;;;;;;7.13;2.80;;;;;;;1.68;79.18;97984.47;5021853;28;20523;-59
2023/04/03 04:07:55;;;;;;;4.32;2.25;;;;;;;1.66;78.02;97975.78;5028594;28;20042;-59
2023/04/03 04:10:23;;;;;;;3.78;2.20;;;;;;;1.73;78.74;97977.75;5026315;28;20046;-59
2023/04/03 04:12:51;;;;;;;6.55;2.45;;;;;;;1.81;77.67;97981.16;5022696;28;20625;-59
2023/04/03 04:15:21;;;;;;;6.17;2.67;;;;;;;1.76;77.39;97974.69;5027882;28;20039;-59
2023/04/03 04:17:48;;;;;;;4.97;2.22;;;;;;;1.68;77.99;97973.78;5027954;28;20045;-58
2023/04/03 04:20:15;;;;;;;3.90;2.50;;;;;;;1.73;77.94;97981.22;5032656;28;20120;-59
2023/04/03 04:22:42;;;;;;;5.57;2.17;;;;;;;1.78;78.94;97986.03;5026225;28;20073;-59
2023/04/03 04:25:09;;;;;;;3.72;2.20;;;;;;;1.88;78.35;97983.13;5035424;28;20125;-59
2023/04/03 04:27:38;;;;;;;4.63;2.28;;;;;;;1.66;78.51;97982.97;5032269;28;20135;-59
2023/04/03 04:30:06;;;;;;;6.90;2.10;;;;;;;1.62;78.74;97985.16;5032939;28;20392;-59
2023/04/03 04:32:32;;;;;;;4.43;2.30;;;;;;;1.63;78.44;97978.84;5030808;28;20037;-59
2023/04/03 04:35:00;;;;;;;4.65;2.33;;;;;;;1.71;78.24;97977.09;5030578;28;20640;-59
2023/04/03 04:37:29;;;;;;;4.47;2.22;;;;;;;1.69;78.36;97982.59;5031624;28;20049;-57
2023/04/03 04:39:56;;;;;;;3.88;1.92;;;;;;;1.65;78.97;97987.47;5029709;28;20672;-59
2023/04/03 04:42:23;;;;;;;6.75;2.65;;;;;;;1.55;78.02;97981.56;5026470;28;20099;-58
2023/04/03 04:44:50;;;;;;;4.15;2.33;;;;;;;1.68;77.57;97979.13;5023500;28;20136;-57
2023/04/03 04:47:16;;;;;;;6.55;2.10;;;;;;;1.61;77.44;97990.66;5029932;28;20084;-59
2023/04/03 04:49:43;;;;;;;4.65;2.47;;;;;;;1.62;77.40;97987.00;5030186;28;20056;-58
2023/04/03 04:52:10;;;;;;;4.72;2.70;;;;;;;1.67;77.08;97988.13;5028644;28;20087;-58
2023/04/03 04:54:38;;;;;;;4.78;2.40;;;;;;;1.69;76.40;97988.78;5026261;28;20415;-59
2023/04/03 04:57:05;;;;;;;6.32;2.97;;;;;;;1.69;77.00;97983.44;5029448;28;20169;-57
2023/04/03 04:59:33;;;;;;;7.28;3.13;;;;;;;1.73;76.37;97999.13;5023192;28;20056;-58
2023/04/03 05:02:00;;;;;;;6.32;2.90;;;;;;;1.69;75.79;97988.78;5024734;28;20072;-59
2023/04/03 05:04:27;;;;;;;5.15;2.60;;;;;;;1.72;75.67;97995.59;5031209;28;20092;-57
2023/04/03 05:07:00;;;;;;;5.47;2.70;;;;;;;1.74;75.98;97998.09;5025096;28;20076;-59
2023/04/03 05:09:29;;;;;;;6.75;2.30;;;;;;;1.71;72.90;97993.09;5024937;28;20072;-58
2023/04/03 05:11:56;;;;;;;4.30;2.40;;;;;;;1.67;72.96;97997.97;5029674;28;20042;-58
2023/04/03 05:14:25;;;;;;;4.40;2.03;;;;;;;1.70;72.39;98002.97;5027465;28;20780;-59
2023/04/03 05:16:54;;;;;;;4.50;2.13;;;;;;;1.69;72.26;98001.28;5020191;28;20148;-58
2023/04/03 05:19:24;;;;;;;4.15;2.13;;;;;;;1.75;72.22;97997.06;5022224;28;20061;-59
2023/04/03 05:21:51;;;;;;;3.70;2.17;;;;;;;1.83;72.41;98013.03;5025472;28;20607;-59
2023/04/03 05:24:18;;;;;;;6.03;2.63;;;;;;;1.78;72.33;98007.41;5021683;28;20667;-59
2023/04/03 05:26:44;;;;;;;3.38;1.95;;;;;;;1.85;73.48;98012.84;5024610;28;20052;-58
2023/04/03 05:29:12;;;;;;;4.18;2.55;;;;;;;1.80;72.79;98011.56;5029926;28;20037;-58
2023/04/03 05:31:39;;;;;;;4.65;2.67;;;;;;;1.76;74.15;98009.41;5028524;28;20048;-59
2023/04/03 05:34:07;;;;;;;5.13;2.55;;;;;;;1.62;76.03;98011.03;5021299;28;20045;-58
2023/04/03 05:36:35;;;;;;;7.75;2.30;;;;;;;1.71;76.89;98019.81;5025234;28;20061;-59
2023/04/03 05:39:05;;;;;;;3.85;2.05;;;;;;;1.84;77.76;98016.53;5028878;28;20048;-58
2023/04/03 05:41:35;;;;;;;5.10;2.35;;;;;;;1.79;77.70;98019.75;5026211;28;20078;-59
2023/04/03 05:44:02;;;;;;;3.97;2.22;;;;;;;1.87;77.17;98019.69;5022263;28;20048;-57
2023/04/03 05:46:28;;;;;;;5.20;2.63;;;;;;;1.68;78.76;98024.50;5021371;28;20056;-58
2023/04/03 05:48:57;;;;;;;4.57;2.17;;;;;;;1.60;80.03;98037.91;5018994;28;20052;-57
2023/04/03 05:51:33;;;;;;;4.93;2.25;;;;;;;1.60;79.84;98026.38;5023758;28;20053;-58
2023/04/03 05:54:28;;;;;;;3.80;2.25;;;;;;;1.75;81.05;98024.63;5034065;28;20053;-54
2023/04/03 05:57:02;;;;;;;4.38;2.55;;;;;;;1.73;79.72;98023.94;5027137;28;20038;-53
2023/04/03 05:59:28;;;;;;;4.18;2.30;;;;;;;1.89;80.65;98033.69;5024496;28;20068;-58
2023/04/03 06:01:57;;;;;;;4.55;2.17;;;;;;;1.91;78.58;98028.16;5018259;28;20030;-58
2023/04/03 06:04:24;;;;;;;4.47;2.38;;;;;;;1.89;79.34;98033.69;5028320;28;20045;-59
2023/04/03 06:06:57;;;;;;;4.50;2.33;;;;;;;1.79;78.65;98030.41;5014523;28;20037;-58
2023/04/03 06:09:27;;;;;;;4.13;2.28;;;;;;;1.73;77.91;98031.16;5025772;28;20098;-57
2023/04/03 06:11:53;;;;;;;4.72;2.50;;;;;;;1.91;78.32;98038.84;5025716;28;20050;-58
2023/04/03 06:14:22;;;;;;;6.07;2.40;;;;;;;1.84;78.46;98037.91;5018693;28;20136;-57
2023/04/03 06:16:49;;;;;;;9.40;2.47;;;;;;;1.95;78.00;98038.31;5027542;28;20044;-57
2023/04/03 06:19:15;;;;;;;3.97;2.20;;;;;;;1.94;78.08;98041.16;5027581;28;20692;-59
2023/04/03 06:21:50;;;;;;;3.83;2.10;;;;;;;1.97;77.58;98048.81;5029898;28;20543;-57
2023/04/03 06:24:17;;;;;;;5.05;2.00;;;;;;;2.14;76.82;98046.81;5029701;28;20067;-56
2023/04/03 06:26:44;;;;;;;4.57;2.20;;;;;;;2.11;76.47;98041.84;5018994;28;20057;-58
2023/04/03 06:29:10;;;;;;;3.92;2.22;;;;;;;2.16;76.10;98052.81;5035011;28;20045;-58
2023/04/03 06:31:37;;;;;;;3.38;2.13;;;;;;;1.98;76.55;98041.63;5018275;28;20124;-54
2023/04/03 06:34:04;;;;;;;5.32;2.60;;;;;;;1.94;76.47;98047.34;5022943;28;20063;-58
2023/04/03 06:36:35;;;;;;;4.40;2.47;;;;;;;2.07;77.01;98052.06;5028282;28;20589;-59
2023/04/03 06:39:02;;;;;;;4.85;2.50;;;;;;;2.28;76.39;98047.88;5031995;28;20139;-58
2023/04/03 06:41:29;;;;;;;5.22;2.17;;;;;;;2.23;75.41;98050.25;5032497;28;20130;-58
2023/04/03 06:43:57;;;;;;;4.97;2.53;;;;;;;2.12;76.25;98056.03;5028517;28;20045;-57
2023/04/03 06:46:26;;;;;;;4.70;2.47;;;;;;;2.05;76.32;98056.75;5031507;28;20594;-59
2023/04/03 06:48:54;;;;;;;5.32;2.55;;;;;;;1.87;76.64;98054.41;5019105;28;20053;-58
2023/04/03 06:51:28;;;;;;;4.82;2.08;;;;;;;1.89;76.80;98062.22;5031628;28;20516;-58
2023/04/03 06:53:57;;;;;;;5.72;2.50;;;;;;;2.05;76.94;98059.44;5026181;28;20087;-58
2023/04/03 06:56:26;;;;;;;6.88;2.58;;;;;;;1.94;77.41;98058.03;5033239;28;20037;-56
2023/04/03 06:58:54;;;;;;;6.90;2.95;;;;;;;1.93;77.61;98061.72;5029463;28;20709;-58
2023/04/03 07:01:21;;;;;;;5.95;2.67;;;;;;;2.25;75.28;98063.44;5035518;28;20127;-57
2023/04/03 07:03:49;;;;;;;4.38;2.40;;;;;;;2.09;76.26;98067.91;5031688;28;20069;-57
2023/04/03 07:06:16;;;;;;;3.88;2.38;;;;;;;2.10;77.06;98072.22;5030278;28;20137;-54
2023/04/03 07:08:43;;;;;;;4.20;2.50;;;;;;;2.08;77.07;98072.44;5030662;28;20052;-57
2023/04/03 07:11:12;;;;;;;5.93;2.60;;;;;;;2.13;77.31;98069.22;5034501;28;20041;-57
2023/04/03 07:13:38;;;;;;;5.13;2.67;;;;;;;2.12;77.62;98075.56;5026094;28;20409;-58
2023/04/03 07:16:06;;;;;;;6.00;2.83;;;;;;;2.07;77.04;98072.63;5028034;28;20057;-58
2023/04/03 07:18:33;;;;;;;5.32;2.75;;;;;;;2.30;77.33;98074.41;5029670;28;20040;-59
2023/04/03 07:21:00;;;;;;;4.53;2.60;;;;;;;2.44;76.51;98078.13;5028129;28;20055;-58
2023/04/03 07:23:27;;;;;;;4.90;2.72;;;;;;;2.56;78.26;98078.50;5028237;28;20037;-59
2023/04/03 07:25:54;;;;;;;6.43;2.50;;;;;;;2.32;76.44;98091.13;5033307;28;20080;-57
2023/04/03 07:28:25;;;;;;;3.90;2.20;;;;;;;2.36;77.42;98086.22;5027684;28;20056;-55
2023/04/03 07:30:59;;;;;;;6.28;2.53;;;;;;;2.33;76.56;98087.41;5029551;28;20045;-56
2023/04/03 07:33:26;;;;;;;5.38;2.67;;;;;;;2.62;76.28;98093.00;5026801;28;20132;-56
2023/04/03 07:35:52;;;;;;;5.80;2.70;;;;;;;2.60;76.97;98088.66;5024140;28;20049;-59
2023/04/03 07:38:19;;;;;;;6.28;2.47;;;;;;;2.72;75.82;98088.19;5030444;28;20495;-57
2023/04/03 07:40:50;;;;;;;5.45;2.58;;;;;;;2.74;75.57;98091.53;5027128;28;20056;-59
2023/04/03 07:43:18;;;;;;;6.75;2.53;;;;;;;2.57;76.35;98096.19;5030513;28;20033;-58
2023/04/03 07:45:44;;;;;;;7.32;2.80;;;;;;;2.54;75.51;98094.72;5027610;28;20073;-57
2023/04/03 07:48:12;;;;;;;5.88;2.97;;;;;;;2.58;75.45;98092.53;5029904;28;20041;-58
2023/04/03 07:50:42;;;;;;;4.13;2.25;;;;;;;2.62;75.38;98096.50;5027363;28;20571;-57
2023/04/03 07:53:09;;;;;;;5.03;2.70;;;;;;;2.77;76.96;98103.69;5031163;28;20053;-57
2023/04/03 07:55:42;;;;;;;5.55;2.67;;;;;;;2.72;75.81;98105.09;5024278;28;20324;-58
2023/04/03 07:58:11;;;;;;;7.68;2.42;;;;;;;2.77;73.68;98103.69;5028735;28;20049;-57
2023/04/03 08:00:38;;;;;;;4.43;2.47;;;;;;;2.54;74.39;98105.41;5024610;28;20711;-56
2023/04/03 08:03:05;;;;;;;5.03;2.60;;;;;;;2.70;76.17;98096.41;5022535;28;20761;-57
2023/04/03 08:05:39;;;;;;;5.75;3.17;;;;;;;2.79;76.17;98112.34;5030752;28;20390;-57
2023/04/03 08:08:07;;;;;;;7.07;3.20;;;;;;;3.03;73.82;98111.28;5030085;28;20151;-57
2023/04/03 08:10:33;;;;;;;7.03;3.95;;;;;;;2.90;74.46;98111.91;5029426;28;20114;-58
2023/04/03 08:13:00;;;;;;;7.32;2.95;;;;;;;2.76;75.72;98118.09;5023301;28;20505;-59
2023/04/03 08:15:27;;;;;;;4.18;2.63;;;;;;;3.07;74.86;98107.22;5025002;28;20052;-57
2023/04/03 08:17:54;;;;;;;4.30;2.53;;;;;;;3.18;74.26;98110.44;5032744;28;20037;-59
2023/04/03 08:20:21;;;;;;;4.70;2.47;;;;;;;3.42;73.42;98119.19;5020844;28;20405;-57
2023/04/03 08:22:48;;;;;;;5.00;2.72;;;;;;;3.62;72.62;98112.19;5025570;28;20485;-58
2023/04/03 08:25:14;;;;;;;4.93;2.50;;;;;;;3.83;72.00;98112.44;5035785;28;20137;-58
2023/04/03 08:27:41;;;;;;;5.50;3.38;;;;;;;3.64;72.41;98112.00;5031987;28;20606;-58
2023/04/03 08:30:08;;;;;;;6.05;2.95;;;;;;;3.48;72.11;98107.72;5025558;28;20554;-58
2023/04/03 08:32:35;;;;;;;4.82;2.78;;;;;;;3.38;73.21;98110.69;5028730;28;20196;-56
2023/04/03 08:35:04;;;;;;;8.95;6.35;;;;;;;3.43;73.07;98110.94;5031240;28;20069;-57
2023/04/03 08:37:30;;;;;;;6.60;3.33;;;;;;;3.29;75.48;98111.81;5032543;28;20440;-59
2023/04/03 08:39:57;;;;;;;5.95;2.92;;;;;;;3.48;75.16;98108.56;5033419;28;20034;-58
2023/04/03 08:42:52;;;;;;;7.28;2.92;;;;;;;3.53;74.51;98112.53;5027559;28;20048;-58
2023/04/03 08:45:27;;;;;;;5.15;2.72;;;;;;;3.63;74.51;98119.22;5033256;28;20436;-59
2023/04/03 08:48:11;;;;;;;5.93;2.63;;;;;;;3.69;73.45;98114.13;5031822;28;20073;-57
2023/04/03 08:50:45;;;;;;;7.22;2.80;;;;;;;3.84;73.12;98108.72;5031237;28;20051;-58
2023/04/03 08:53:34;;;;;;;4.35;2.33;;;;;;;3.70;73.40;98113.09;5030978;28;20064;-57
2023/04/03 08:56:10;;;;;;;5.55;2.88;;;;;;;3.53;73.21;98107.16;5033915;28;20041;-57
2023/04/03 08:59:01;;;;;;;5.72;3.05;;;;;;;3.61;73.30;98121.25;5033054;28;20075;-59
2023/04/03 09:01:35;;;;;;;4.20;2.50;;;;;;;3.75;72.95;98121.41;5029123;28;20044;-57
2023/04/03 09:04:09;;;;;;;7.22;3.35;;;;;;;3.73;73.19;98110.88;5032213;28;20669;-59
2023/04/03 09:06:36;;;;;;;4.65;2.63;;;;;;;3.91;71.42;98125.72;5032491;28;20041;-56
2023/04/03 09:09:15;;;;;;;6.60;2.60;;;;;;;3.63;71.16;98123.75;5034073;28;20053;-56
2023/04/03 09:12:09;;;;;;;5.53;2.67;;;;;;;3.97;70.86;98124.94;5031499;28;20045;-58
2023/04/03 09:14:44;;;;;;;4.55;2.20;;;;;;;4.27;68.84;98116.78;5025932;28;20555;-56
2023/04/03 09:17:35;;;;;;;5.57;2.67;;;;;;;4.24;68.74;98122.50;5029526;28;20037;-54
2023/04/03 09:20:17;;;;;;;4.50;2.35;;;;;;;3.89;70.13;98123.22;5027109;28;20069;-58
2023/04/03 09:22:48;;;;;;;6.55;3.03;;;;;;;3.88;69.85;98118.84;5025736;28;20470;-58
2023/04/03 09:25:21;;;;;;;;;;;;;;;3.82;71.55;98124.16;5030099;28;20126;-55
2023/04/03 09:27:48;;;;;;;7.65;3.00;;;;;;;3.85;72.01;98118.41;5029590;28;19983;-58
2023/04/03 09:30:16;;;;;;;7.63;3.38;;;;;;;4.15;70.34;98127.19;5033336;28;20124;-57
2023/04/03 09:32:47;;;;;;;4.90;2.58;;;;;;;4.61;67.06;98114.34;5026073;28;20064;-58
2023/04/03 09:35:34;;;;;;;6.10;2.60;;;;;;;4.81;66.70;98114.50;5029240;28;20049;-58
2023/04/03 09:38:13;;;;;;;5.32;2.75;;;;;;;4.64;66.66;98121.19;5032235;28;20041;-58
2023/04/03 09:40:45;;;;;;;5.47;2.50;;;;;;;4.14;67.01;98122.00;5030357;28;20041;-56
2023/04/03 09:43:29;;;;;;;;;;;;;;;4.18;66.66;98112.56;5026831;28;20091;-58
2023/04/03 09:46:16;;;;;;;3.70;2.45;;;;;;;4.18;66.88;98123.28;5025712;28;19928;-58
2023/04/03 09:48:59;;;;;;;4.90;2.40;;;;;;;4.14;65.36;98125.53;5034693;28;20128;-57
2023/04/03 09:51:34;;;;;;;7.18;2.35;;;;;;;4.03;66.33;98112.63;5030341;28;20053;-59
2023/04/03 09:54:26;;;;;;;4.32;2.40;;;;;;;3.98;67.86;98113.19;5033303;28;20540;-57
2023/04/03 09:56:55;;;;;;;6.75;2.78;;;;;;;3.84;68.95;98116.78;5027117;28;20042;-57
2023/04/03 09:59:22;;;;;;;5.75;2.90;;;;;;;4.01;68.63;98112.81;5026896;28;20064;-58
2023/04/03 10:02:24;;;;;;;7.38;3.30;;;;;;;4.36;67.81;98113.97;5031306;28;20049;-55
2023/04/03 10:04:50;;;;;;;7.45;2.65;;;;;;;4.78;65.90;98116.75;5016565;28;20064;-59
2023/04/03 10:07:37;;;;;;;5.85;2.47;;;;;;;4.76;65.34;98111.56;5018533;28;20064;-57
2023/04/03 10:10:17;;;;;;;5.68;2.75;;;;;;;4.73;64.86;98103.09;5032662;28;20045;-58
2023/04/03 10:12:44;;;;;;;7.43;3.88;;;;;;;4.89;64.93;98101.94;5019756;28;20060;-58
2023/04/03 10:15:16;;;;;;;9.30;4.40;;;;;;;4.75;65.39;98104.53;5033377;28;20447;-56
2023/04/03 10:17:53;;;;;;;9.40;4.45;;;;;;;4.75;65.24;98112.59;5029783;28;20543;-57
2023/04/03 10:20:44;;;;;;;6.32;3.08;;;;;;;4.50;64.51;98104.16;5025722;28;20051;-58
2023/04/03 10:23:40;;;;;;;8.90;4.45;;;;;;;4.75;65.26;98101.88;5028601;28;20108;-59
2023/04/03 10:26:19;;;;;;;9.05;3.58;;;;;;;4.59;65.31;98092.28;5032682;28;20045;-58
2023/04/03 10:29:13;;;;;;;5.57;2.00;;;;;;;4.47;65.60;98099.19;5025461;28;20045;-57
2023/04/03 10:31:49;;;;;;;7.90;2.47;;;;;;;4.42;65.90;98105.97;5032462;28;20141;-55
2023/04/03 10:34:40;;;;;;;5.50;2.33;;;;;;;4.50;64.40;98104.97;5033721;28;20036;-57
2023/04/03 10:37:28;;;;;;;3.53;1.92;;;;;;;4.52;64.17;98094.91;5029732;28;20059;-58
2023/04/03 10:40:31;;;;;;;5.95;2.22;;;;;;;4.67;63.83;98105.53;5029761;28;20045;-59
2023/04/03 10:43:22;;;;;;;3.55;2.00;;;;;;;4.62;64.58;98105.31;5028149;28;20599;-57
2023/04/03 10:46:04;;;;;;;5.18;2.00;;;;;;;4.22;63.86;98107.63;5032410;28;20049;-59
2023/04/03 10:48:44;;;;;;;3.53;2.10;;;;;;;4.43;63.66;98098.75;5034525;28;20504;-56
2023/04/03 10:51:34;;;;;;;4.22;2.05;;;;;;;4.72;63.03;98101.44;5033938;28;20415;-58
2023/04/03 10:54:10;;;;;;;3.85;1.88;;;;;;;5.06;61.54;98111.34;5029239;28;20041;-56
2023/04/03 10:56:39;;;;;;;5.68;2.97;;;;;;;4.74;63.08;98108.25;5030724;28;20554;-57
2023/04/03 10:59:43;;;;;;;5.53;3.00;;;;;;;4.72;63.97;98110.28;5026431;28;20514;-54
2023/04/03 11:02:09;;;;;;;3.80;2.10;;;;;;;4.75;62.22;98109.91;5033788;28;20122;-57
2023/04/03 11:04:39;;;;;;;5.78;3.10;;;;;;;4.62;62.65;98110.66;5026247;28;20489;-58
2023/04/03 11:07:26;;;;;;;7.45;4.40;;;;;;;5.01;61.28;98108.41;5032233;28;20045;-57
2023/04/03 11:09:58;;;;;;;5.03;3.30;;;;;;;5.21;60.10;98100.47;5031592;28;20045;-58
2023/04/03 11:12:33;;;;;;;5.70;2.30;;;;;;;5.19;60.84;98099.00;5023733;28;20113;-58
2023/04/03 11:15:03;;;;;;;4.93;1.80;;;;;;;5.17;59.49;98099.22;5020502;28;20123;-59
2023/04/03 11:18:22;;;;;;;6.47;2.25;;;;;;;5.20;59.84;98093.44;5030688;28;20045;-56
2023/04/03 11:21:14;;;;;;;4.32;1.95;;;;;;;5.18;60.63;98094.69;5005395;28;20080;-58
2023/04/03 11:23:41;;;;;;;5.65;2.35;;;;;;;4.91;61.22;98094.53;5021720;28;20045;-57
2023/04/03 11:26:18;;;;;;;3.55;2.08;;;;;;;4.71;61.53;98105.97;5032996;28;20049;-58
2023/04/03 11:28:46;;;;;;;5.30;2.20;;;;;;;4.86;61.79;98088.94;5031603;28;20069;-57
2023/04/03 11:31:28;;;;;;;4.80;2.20;;;;;;;5.03;60.75;98087.59;5036001;28;20802;-58
2023/04/03 11:34:21;;;;;;;4.78;2.03;;;;;;;5.42;58.47;98090.66;5023059;28;20046;-57
2023/04/03 11:36:53;;;;;;;5.70;2.35;;;;;;;5.69;57.76;98088.06;5021656;28;20630;-57
2023/04/03 11:39:27;;;;;;;5.00;2.20;;;;;;;5.43;58.25;98091.47;5032221;28;20073;-58
2023/04/03 11:41:55;;;;;;;6.75;2.10;;;;;;;4.95;59.77;98095.81;5027228;28;20529;-57
2023/04/03 11:44:38;;;;;;;8.70;3.85;;;;;;;4.98;59.85;98092.72;5027721;28;20123;-55
2023/04/03 11:47:07;;;;;;;5.20;2.25;;;;;;;4.85;59.24;98073.84;5037126;28;20045;-56
2023/04/03 11:50:04;;;;;;;4.70;2.03;;;;;;;4.63;57.28;98085.50;5034429;28;20693;-55
2023/04/03 11:52:39;;;;;;;6.00;2.15;;;;;;;4.95;56.81;98088.56;5026171;28;20618;-57
2023/04/03 11:55:19;;;;;;;5.55;1.88;;;;;;;5.04;57.43;98083.03;5030112;28;20041;-56
2023/04/03 11:57:58;;;;;;;3.72;1.90;;;;;;;5.02;57.26;98069.00;5026665;28;20065;-58
2023/04/03 12:00:52;;;;;;;3.80;1.60;;;;;;;5.12;58.54;98074.81;5027268;28;20680;-57